Time;durP1;ratioP1;P1;durP2;ratioP2;P2;SDS_P1;SDS_P2;PMS_P1;PMS_P2;Temp;Humidity;BMP_temperature;BMP_pressure;BME280_temperature;BME280_humidity;BME280_pressure;Samples;Min_cycle;Max_cycle;Signal;HPM_P1;HPM_P2
2022/03/20 00:00:44;;;;;;;44.30;40.40;;;5.00;71.50;;;;;;5095013;28;20192;-72
2022/03/20 00:03:12;;;;;;;42.15;38.25;;;5.10;71.40;;;;;;5095241;28;20246;-72
2022/03/20 00:05:40;;;;;;;42.53;38.65;;;5.00;71.60;;;;;;5094957;28;20222;-72
2022/03/20 00:08:09;;;;;;;43.05;39.58;;;5.00;71.80;;;;;;5094941;28;20610;-72
2022/03/20 00:10:36;;;;;;;41.75;38.22;;;5.00;71.90;;;;;;5094614;28;20539;-72
2022/03/20 00:13:07;;;;;;;41.47;38.05;;;4.90;72.10;;;;;;5094920;28;20302;-72
2022/03/20 00:15:34;;;;;;;44.83;40.88;;;4.90;72.10;;;;;;5094829;28;20572;-72
2022/03/20 00:18:01;;;;;;;42.70;38.83;;;4.90;72.30;;;;;;5094729;28;20291;-72
2022/03/20 00:20:28;;;;;;;43.70;39.90;;;4.90;72.30;;;;;;5094738;28;20221;-72
2022/03/20 00:22:56;;;;;;;43.38;39.78;;;4.90;72.50;;;;;;5094496;28;20223;-72
2022/03/20 00:25:24;;;;;;;45.17;41.38;;;4.90;72.60;;;;;;5094549;28;20207;-72
2022/03/20 00:27:50;;;;;;;42.28;38.72;;;4.80;72.40;;;;;;5094712;28;20665;-72
2022/03/20 00:30:19;;;;;;;44.17;40.05;;;4.80;72.40;;;;;;5094330;28;20210;-72
2022/03/20 00:32:45;;;;;;;42.72;38.95;;;5.00;72.00;;;;;;5094344;28;20218;-72
2022/03/20 00:35:12;;;;;;;42.65;39.05;;;5.00;71.80;;;;;;5094304;28;20196;-73
2022/03/20 00:37:39;;;;;;;41.15;37.83;;;5.00;73.10;;;;;;5094288;28;20231;-73
2022/03/20 00:40:08;;;;;;;40.58;37.30;;;4.80;72.80;;;;;;5094053;28;20675;-73
2022/03/20 00:42:34;;;;;;;42.63;38.92;;;4.80;73.10;;;;;;5093980;28;20220;-72
2022/03/20 00:45:01;;;;;;;39.90;36.47;;;4.80;72.90;;;;;;5094019;28;20206;-72
2022/03/20 00:47:30;;;;;;;43.75;40.13;;;4.80;72.50;;;;;;5094161;28;20208;-72
2022/03/20 00:49:56;;;;;;;42.55;39.20;;;4.80;72.50;;;;;;5093951;28;20192;-72
2022/03/20 00:52:23;;;;;;;42.45;38.88;;;4.80;72.50;;;;;;5093714;28;20214;-72
2022/03/20 00:54:50;;;;;;;43.20;39.65;;;4.70;72.80;;;;;;5093984;28;20199;-72
2022/03/20 00:57:18;;;;;;;42.75;39.20;;;4.80;72.50;;;;;;5093639;28;20692;-72
2022/03/20 00:59:45;;;;;;;42.42;38.47;;;4.80;72.70;;;;;;5093689;28;20211;-72
2022/03/20 01:02:13;;;;;;;43.00;39.08;;;4.80;72.80;;;;;;5093644;28;20253;-72
2022/03/20 01:04:41;;;;;;;42.88;39.20;;;4.80;74.10;;;;;;5093179;28;20242;-72
2022/03/20 01:07:08;;;;;;;43.20;39.58;;;4.80;73.10;;;;;;5093707;28;20199;-72
2022/03/20 01:09:35;;;;;;;43.63;39.72;;;4.80;72.50;;;;;;5093443;28;20202;-72
2022/03/20 01:12:03;;;;;;;42.70;38.90;;;4.80;72.40;;;;;;5093687;28;20705;-72
2022/03/20 01:14:31;;;;;;;42.78;38.97;;;4.80;72.40;;;;;;5093724;28;20234;-72
2022/03/20 01:16:58;;;;;;;43.67;39.88;;;4.70;72.50;;;;;;5093557;28;20232;-72
2022/03/20 01:19:26;;;;;;;44.75;40.95;;;4.70;72.50;;;;;;5093068;28;20211;-72
2022/03/20 01:21:55;;;;;;;42.83;39.03;;;4.60;74.40;;;;;;5093397;28;20318;-72
2022/03/20 01:24:24;;;;;;;44.10;40.40;;;4.60;74.30;;;;;;5093389;28;20557;-72
2022/03/20 01:26:51;;;;;;;45.53;41.40;;;4.60;73.00;;;;;;5093378;28;20215;-72
2022/03/20 01:29:18;;;;;;;43.80;39.53;;;4.60;72.50;;;;;;5093219;28;20669;-72
2022/03/20 01:31:45;;;;;;;44.15;40.28;;;4.70;72.20;;;;;;5093397;28;20693;-72
2022/03/20 01:34:12;;;;;;;43.67;39.72;;;4.80;71.60;;;;;;5093560;28;20199;-70
2022/03/20 01:36:39;;;;;;;40.63;37.17;;;4.80;71.70;;;;;;5093465;28;20667;-70
2022/03/20 01:39:07;;;;;;;42.47;38.97;;;4.70;71.90;;;;;;5093415;28;20203;-70
2022/03/20 01:41:34;;;;;;;41.45;38.05;;;4.70;72.10;;;;;;5093299;28;20199;-70
2022/03/20 01:44:03;;;;;;;40.42;36.83;;;4.60;72.40;;;;;;5093416;28;20200;-70
2022/03/20 01:46:34;;;;;;;40.80;37.30;;;4.60;72.40;;;;;;5093516;28;20231;-70
2022/03/20 01:49:01;;;;;;;42.30;38.60;;;4.50;72.40;;;;;;5093463;28;20199;-70
2022/03/20 01:54:14;;;;;;;41.00;37.60;;;4.50;72.20;;;;;;5093164;28;20194;-70
2022/03/20 01:56:45;;;;;;;41.47;37.67;;;4.50;72.60;;;;;;5092929;28;20766;-70
2022/03/20 01:59:12;;;;;;;40.55;37.25;;;4.40;72.80;;;;;;5092812;28;20199;-70
2022/03/20 02:01:39;;;;;;;40.97;37.38;;;4.30;72.80;;;;;;5092742;28;20223;-70
2022/03/20 02:04:06;;;;;;;40.83;37.25;;;4.30;73.00;;;;;;5092975;28;20217;-70
2022/03/20 02:06:33;;;;;;;42.20;38.60;;;4.30;73.10;;;;;;5092939;28;20206;-70
2022/03/20 02:09:00;;;;;;;42.13;38.60;;;4.40;73.00;;;;;;5092910;28;20206;-70
2022/03/20 02:11:30;;;;;;;41.17;37.78;;;4.40;73.00;;;;;;5092723;28;20199;-70
2022/03/20 02:13:56;;;;;;;41.17;37.78;;;4.50;72.90;;;;;;5092771;28;20187;-70
2022/03/20 02:16:23;;;;;;;42.03;38.63;;;4.40;72.90;;;;;;5092599;28;20282;-70
2022/03/20 02:18:51;;;;;;;42.38;38.75;;;4.50;72.80;;;;;;5092624;28;20205;-70
2022/03/20 02:21:36;;;;;;;44.20;40.30;;;4.50;72.30;;;;;;5092408;28;20211;-70
2022/03/20 02:24:03;;;;;;;40.95;37.45;;;4.50;72.30;;;;;;5092669;28;20309;-72
2022/03/20 02:26:30;;;;;;;44.22;40.60;;;4.60;72.20;;;;;;5092477;28;20558;-72
2022/03/20 02:28:58;;;;;;;41.55;37.97;;;4.50;72.00;;;;;;5092512;28;20286;-72
2022/03/20 02:31:25;;;;;;;42.10;38.50;;;4.60;71.70;;;;;;5092208;28;20202;-72
2022/03/20 02:33:52;;;;;;;41.72;38.28;;;4.60;71.70;;;;;;5092747;28;20193;-72
2022/03/20 02:36:20;;;;;;;42.55;38.90;;;4.50;72.00;;;;;;5092486;28;20192;-72
2022/03/20 02:38:47;;;;;;;42.70;38.92;;;4.40;72.30;;;;;;5092481;28;20564;-72
2022/03/20 02:41:15;;;;;;;41.08;37.63;;;4.40;72.50;;;;;;5092256;28;20205;-72
2022/03/20 02:43:49;;;;;;;42.20;38.60;;;4.40;72.60;;;;;;5092233;28;20215;-73
2022/03/20 02:46:17;;;;;;;41.03;37.42;;;4.40;72.40;;;;;;5092528;28;20198;-72
2022/03/20 02:48:46;;;;;;;43.85;39.92;;;4.40;72.40;;;;;;5092339;28;20207;-70
2022/03/20 02:51:13;;;;;;;42.47;39.05;;;4.40;72.20;;;;;;5092016;28;20229;-70
2022/03/20 02:53:41;;;;;;;42.22;38.33;;;4.50;72.10;;;;;;5092285;28;20215;-71
2022/03/20 02:56:08;;;;;;;40.08;36.83;;;4.40;72.20;;;;;;5091975;28;20206;-70
2022/03/20 02:58:35;;;;;;;42.05;38.55;;;4.50;72.20;;;;;;5092287;28;20672;-70
2022/03/20 03:01:02;;;;;;;41.20;37.88;;;4.50;72.10;;;;;;5092125;28;20202;-70
2022/03/20 03:03:29;;;;;;;43.45;39.75;;;4.50;71.90;;;;;;5092285;28;20585;-70
2022/03/20 03:05:58;;;;;;;43.78;40.13;;;4.50;71.90;;;;;;5092151;28;20290;-70
2022/03/20 03:11:11;;;;;;;40.78;37.13;;;4.40;72.20;;;;;;5092162;28;20190;-70
2022/03/20 03:13:39;;;;;;;42.38;38.67;;;4.60;72.00;;;;;;5092107;28;20715;-71
2022/03/20 03:16:08;;;;;;;42.45;38.83;;;4.50;72.10;;;;;;5092155;28;20203;-72
2022/03/20 03:18:35;;;;;;;43.28;39.45;;;4.50;72.00;;;;;;5091916;28;20207;-73
2022/03/20 03:21:02;;;;;;;43.45;39.53;;;4.60;71.90;;;;;;5091866;28;20291;-72
2022/03/20 03:23:30;;;;;;;45.10;41.15;;;4.60;72.00;;;;;;5091935;28;20332;-72
2022/03/20 03:25:57;;;;;;;68.78;44.20;;;4.50;74.90;;;;;;5092498;28;20204;-72
2022/03/20 03:28:34;;;;;;;45.33;41.42;;;4.40;82.60;;;;;;5095560;28;20641;-72
2022/03/20 03:31:01;;;;;;;43.00;39.28;;;4.50;78.00;;;;;;5095555;28;20283;-72
2022/03/20 03:33:29;;;;;;;42.03;38.42;;;4.60;74.30;;;;;;5095521;28;20215;-72
2022/03/20 03:35:56;;;;;;;42.90;38.92;;;4.50;73.00;;;;;;5095632;28;20195;-72
2022/03/20 03:38:26;;;;;;;42.35;38.95;;;4.50;72.40;;;;;;5095429;28;20227;-73
2022/03/20 03:40:54;;;;;;;42.92;39.45;;;4.40;72.40;;;;;;5095373;28;20607;-72
2022/03/20 03:43:22;;;;;;;43.47;39.70;;;4.40;72.50;;;;;;5095282;28;20585;-72
2022/03/20 03:45:50;;;;;;;41.33;37.92;;;4.40;72.60;;;;;;5095252;28;20675;-72
2022/03/20 03:48:18;;;;;;;42.13;38.30;;;4.40;74.90;;;;;;5095332;28;20695;-72
2022/03/20 03:50:46;;;;;;;42.78;39.22;;;4.40;73.30;;;;;;5094951;28;20199;-73
2022/03/20 03:53:13;;;;;;;42.28;38.67;;;4.40;72.40;;;;;;5095321;28;20211;-72
2022/03/20 03:55:43;;;;;;;43.97;40.17;;;4.50;72.40;;;;;;5095124;28;20712;-72
2022/03/20 03:58:12;;;;;;;41.15;37.58;;;4.50;72.30;;;;;;5095142;28;20669;-72
2022/03/20 04:00:40;;;;;;;41.88;38.30;;;4.40;72.20;;;;;;5094970;28;20199;-72
2022/03/20 04:03:08;;;;;;;40.53;37.15;;;4.50;72.50;;;;;;5095123;28;20627;-72
2022/03/20 04:05:35;;;;;;;40.25;36.78;;;4.60;71.90;;;;;;5095071;28;20199;-73
2022/03/20 04:08:02;;;;;;;42.20;38.42;;;4.60;71.70;;;;;;5094972;28;20203;-73
2022/03/20 04:10:29;;;;;;;40.72;37.35;;;4.60;71.80;;;;;;5094800;28;20223;-73
2022/03/20 04:12:56;;;;;;;42.50;39.00;;;4.60;71.70;;;;;;5094810;28;20710;-72
2022/03/20 04:15:24;;;;;;;41.60;38.08;;;4.70;71.20;;;;;;5094733;28;20341;-72
2022/03/20 04:17:52;;;;;;;41.45;37.85;;;4.80;70.40;;;;;;5094762;28;20294;-73
2022/03/20 04:20:20;;;;;;;40.72;37.53;;;4.80;70.70;;;;;;5094316;28;20207;-72
2022/03/20 04:25:28;;;;;;;42.95;39.15;;;4.80;70.30;;;;;;5094303;28;20191;-72
2022/03/20 04:27:56;;;;;;;42.80;39.30;;;4.80;70.40;;;;;;5094590;28;20198;-73
2022/03/20 04:30:25;;;;;;;39.90;36.83;;;4.70;70.40;;;;;;5094279;28;20218;-72
2022/03/20 04:32:52;;;;;;;41.80;38.22;;;4.70;71.00;;;;;;5094384;28;20262;-72
2022/03/20 04:35:23;;;;;;;43.03;39.35;;;4.70;70.70;;;;;;5094419;28;20286;-73
2022/03/20 04:37:50;;;;;;;41.35;37.90;;;4.60;70.90;;;;;;5094402;28;20249;-72
2022/03/20 04:40:17;;;;;;;42.45;38.85;;;4.50;70.90;;;;;;5094006;28;20687;-72
2022/03/20 04:42:44;;;;;;;42.67;38.80;;;4.60;71.00;;;;;;5094200;28;20226;-72
2022/03/20 04:45:12;;;;;;;39.60;36.30;;;4.60;70.70;;;;;;5094134;28;20214;-72
2022/03/20 04:58:50;;;;;;;40.83;37.53;;;4.60;69.30;;;;;;5089059;28;20263;-72
2022/03/20 05:01:17;;;;;;;40.88;37.45;;;4.70;69.20;;;;;;5093718;28;20192;-72
2022/03/20 05:03:44;;;;;;;40.20;36.65;;;4.80;68.80;;;;;;5094006;28;20558;-72
2022/03/20 05:06:12;;;;;;;40.10;36.80;;;4.80;68.70;;;;;;5093852;28;20199;-72
2022/03/20 05:08:40;;;;;;;41.25;37.65;;;4.80;68.50;;;;;;5093701;28;20195;-72
2022/03/20 05:13:52;;;;;;;40.08;36.88;;;5.00;68.10;;;;;;5093996;28;20190;-72
2022/03/20 05:16:20;;;;;;;40.53;37.03;;;5.00;67.90;;;;;;5093686;28;20195;-72
2022/03/20 05:18:46;;;;;;;41.30;37.90;;;5.10;67.70;;;;;;5093408;28;20268;-72
2022/03/20 05:21:15;;;;;;;39.58;36.45;;;5.10;67.40;;;;;;5093377;28;20657;-72
2022/03/20 05:23:41;;;;;;;41.17;37.47;;;5.10;67.90;;;;;;5093444;28;20245;-72
2022/03/20 05:26:08;;;;;;;41.78;38.00;;;5.20;67.70;;;;;;5093388;28;20195;-73
2022/03/20 05:28:35;;;;;;;39.47;36.28;;;5.20;67.30;;;;;;5093378;28;20203;-73
2022/03/20 05:31:03;;;;;;;43.35;39.60;;;5.20;67.30;;;;;;5093199;28;20199;-72
2022/03/20 05:33:31;;;;;;;43.67;39.78;;;5.40;66.60;;;;;;5093344;28;20574;-72
2022/03/20 05:35:58;;;;;;;42.00;38.70;;;5.40;67.00;;;;;;5093287;28;20238;-72
2022/03/20 05:38:26;;;;;;;41.25;37.70;;;5.50;66.80;;;;;;5093137;28;20570;-72
2022/03/20 05:43:37;;;;;;;39.13;35.85;;;5.50;67.00;;;;;;5092747;28;20227;-72
2022/03/20 05:46:04;;;;;;;42.30;38.72;;;5.60;66.30;;;;;;5093092;28;20191;-73
2022/03/20 05:48:31;;;;;;;42.20;38.42;;;5.70;65.30;;;;;;5092977;28;20197;-73
2022/03/20 05:50:58;;;;;;;41.90;38.40;;;5.80;65.00;;;;;;5092417;28;20227;-72
2022/03/20 05:53:27;;;;;;;42.53;39.00;;;5.90;65.10;;;;;;5092967;28;20213;-72
2022/03/20 05:58:39;;;;;;;43.25;39.22;;;5.90;65.20;;;;;;5092944;28;20198;-72
2022/03/20 06:01:05;;;;;;;42.92;39.42;;;6.20;63.80;;;;;;5092680;28;20282;-72
2022/03/20 06:03:32;;;;;;;43.42;39.75;;;6.20;63.90;;;;;;5092894;28;20631;-72
2022/03/20 06:06:00;;;;;;;43.90;39.83;;;6.30;64.10;;;;;;5092990;28;20196;-72
2022/03/20 06:08:28;;;;;;;43.67;39.97;;;6.30;65.20;;;;;;5092648;28;20242;-72
2022/03/20 06:10:56;;;;;;;42.42;39.03;;;6.30;66.10;;;;;;5092536;28;20303;-72
2022/03/20 06:13:23;;;;;;;42.42;38.72;;;6.50;65.70;;;;;;5092704;28;20223;-72
2022/03/20 06:15:49;;;;;;;44.70;40.88;;;6.70;64.00;;;;;;5092566;28;20206;-73
2022/03/20 06:18:16;;;;;;;44.60;40.60;;;6.90;63.30;;;;;;5092474;28;20200;-73
2022/03/20 06:20:44;;;;;;;44.25;40.38;;;7.00;62.50;;;;;;5092406;28;20205;-72
2022/03/20 06:23:11;;;;;;;43.35;39.63;;;7.00;62.80;;;;;;5092559;28;20227;-72
2022/03/20 06:25:39;;;;;;;45.05;41.25;;;7.10;62.80;;;;;;5092617;28;20651;-72
2022/03/20 06:28:06;;;;;;;43.33;39.35;;;7.30;62.40;;;;;;5092604;28;20545;-73
2022/03/20 06:30:34;;;;;;;44.58;40.78;;;7.40;62.30;;;;;;5092318;28;20199;-73
2022/03/20 06:33:02;;;;;;;44.67;40.22;;;7.60;62.20;;;;;;5092333;28;20216;-72
2022/03/20 06:35:29;;;;;;;43.90;40.08;;;7.70;61.60;;;;;;5092504;28;20201;-72
2022/03/20 06:37:56;;;;;;;43.88;40.17;;;7.80;60.90;;;;;;5092582;28;20200;-73
2022/03/20 06:40:23;;;;;;;43.08;39.42;;;7.70;61.20;;;;;;5092439;28;20196;-72
2022/03/20 06:42:52;;;;;;;45.78;41.17;;;7.80;61.10;;;;;;5092526;28;20259;-71
2022/03/20 06:45:20;;;;;;;44.60;40.65;;;7.80;61.10;;;;;;5092179;28;20752;-71
2022/03/20 06:47:47;;;;;;;44.88;40.75;;;7.90;60.60;;;;;;5092267;28;20237;-71
2022/03/20 06:50:14;;;;;;;43.50;39.72;;;7.90;60.60;;;;;;5092220;28;20201;-71
2022/03/20 06:52:41;;;;;;;44.42;40.78;;;8.10;60.50;;;;;;5092097;28;20264;-70
2022/03/20 06:55:12;;;;;;;46.03;41.63;;;8.20;60.20;;;;;;5092201;28;20198;-70
2022/03/20 06:57:42;;;;;;;44.95;41.05;;;8.30;59.50;;;;;;5092050;28;20308;-71
2022/03/20 07:00:12;;;;;;;43.83;39.72;;;8.20;59.60;;;;;;5092087;28;20208;-71
2022/03/20 07:02:39;;;;;;;45.92;41.92;;;8.10;59.90;;;;;;5095269;28;20599;-71
2022/03/20 07:05:07;;;;;;;44.35;40.45;;;8.20;60.00;;;;;;5096027;28;20224;-71
2022/03/20 07:07:35;;;;;;;45.55;41.33;;;8.20;59.90;;;;;;5096198;28;20678;-71
2022/03/20 07:10:02;;;;;;;44.90;41.13;;;8.30;60.00;;;;;;5095773;28;20208;-70
2022/03/20 07:12:29;;;;;;;44.67;40.65;;;8.40;59.60;;;;;;5096046;28;20217;-71
2022/03/20 07:14:57;;;;;;;44.10;40.30;;;8.40;59.50;;;;;;5096029;28;20285;-71
2022/03/20 07:17:27;;;;;;;43.45;39.58;;;8.50;59.50;;;;;;5095856;28;20204;-70
2022/03/20 07:19:54;;;;;;;45.88;41.90;;;8.60;59.40;;;;;;5095601;28;20628;-70
2022/03/20 07:22:23;;;;;;;47.28;43.13;;;8.70;59.00;;;;;;5095726;28;20217;-70
2022/03/20 07:24:50;;;;;;;45.03;41.05;;;8.80;58.70;;;;;;5095604;28;20712;-70
2022/03/20 07:30:03;;;;;;;46.40;42.35;;;9.00;58.40;;;;;;5095654;28;20630;-73
2022/03/20 07:32:31;;;;;;;47.60;43.03;;;9.00;58.30;;;;;;5095607;28;20219;-70
2022/03/20 07:34:58;;;;;;;45.40;41.58;;;9.10;58.00;;;;;;5095594;28;20194;-70
2022/03/20 07:37:26;;;;;;;47.60;43.17;;;9.10;58.00;;;;;;5095633;28;20743;-70
2022/03/20 07:39:53;;;;;;;44.50;40.33;;;9.20;58.20;;;;;;5095401;28;20224;-70
2022/03/20 07:42:23;;;;;;;46.50;42.42;;;9.20;58.30;;;;;;5095438;28;20591;-71
2022/03/20 07:44:50;;;;;;;48.08;43.60;;;9.30;58.30;;;;;;5095303;28;20312;-71
2022/03/20 07:47:19;;;;;;;46.53;42.10;;;9.40;58.00;;;;;;5095310;28;20198;-70
2022/03/20 07:49:48;;;;;;;46.70;42.30;;;9.40;57.90;;;;;;5095089;28;20198;-70
2022/03/20 07:52:15;;;;;;;47.60;43.30;;;9.40;57.40;;;;;;5095023;28;20215;-71
2022/03/20 07:54:45;;;;;;;45.92;41.88;;;9.50;57.80;;;;;;5095285;28;20286;-71
2022/03/20 07:57:12;;;;;;;45.43;41.27;;;9.60;57.70;;;;;;5095065;28;20278;-71
2022/03/20 07:59:39;;;;;;;49.33;45.10;;;9.70;58.50;;;;;;5094831;28;20454;-71
2022/03/20 08:02:07;;;;;;;49.92;45.42;;;9.80;58.20;;;;;;5095011;28;20472;-71
2022/03/20 08:04:34;;;;;;;49.92;45.25;;;9.90;58.70;;;;;;5094856;28;20211;-71
2022/03/20 08:07:03;;;;;;;47.83;43.53;;;9.90;57.80;;;;;;5095026;28;20292;-71
2022/03/20 08:09:30;;;;;;;48.80;44.10;;;10.00;57.40;;;;;;5094658;28;20826;-71
2022/03/20 08:11:57;;;;;;;46.77;42.27;;;10.10;57.00;;;;;;5094494;28;20505;-71
2022/03/20 08:14:24;;;;;;;47.97;43.87;;;10.30;56.70;;;;;;5094718;28;20529;-71
2022/03/20 08:16:51;;;;;;;48.97;44.70;;;10.30;56.40;;;;;;5094765;28;20458;-71
2022/03/20 08:19:19;;;;;;;49.20;45.00;;;10.50;57.60;;;;;;5094416;28;20988;-71
2022/03/20 08:21:49;;;;;;;48.23;44.20;;;10.60;57.00;;;;;;5094684;28;20482;-71
2022/03/20 08:24:18;;;;;;;47.57;43.17;;;10.50;55.90;;;;;;5094858;28;20834;-71
2022/03/20 08:26:45;;;;;;;46.53;42.53;;;10.60;55.80;;;;;;5094491;28;20475;-71
2022/03/20 08:29:13;;;;;;;48.17;43.67;;;10.70;55.70;;;;;;5094430;28;20873;-71
2022/03/20 08:31:44;;;;;;;47.87;43.57;;;10.80;55.70;;;;;;5094377;28;20476;-71
2022/03/20 08:34:11;;;;;;;46.40;42.27;;;10.90;55.50;;;;;;5094365;28;20450;-71
2022/03/20 08:36:38;;;;;;;47.10;42.87;;;11.00;55.70;;;;;;5094447;28;20811;-71
2022/03/20 08:39:05;;;;;;;46.27;42.17;;;11.10;55.20;;;;;;5094447;28;20458;-71
2022/03/20 08:41:34;;;;;;;45.80;41.70;;;11.20;54.90;;;;;;5094213;28;20537;-71
2022/03/20 08:44:01;;;;;;;46.87;42.87;;;11.20;54.70;;;;;;5094191;28;20484;-71
2022/03/20 08:46:28;;;;;;;44.67;41.10;;;11.30;54.60;;;;;;5094407;28;20757;-71
2022/03/20 08:48:55;;;;;;;45.57;41.63;;;11.50;54.20;;;;;;5094149;28;20467;-71
2022/03/20 08:51:22;;;;;;;46.13;42.00;;;11.50;53.80;;;;;;5093723;28;20457;-71
2022/03/20 08:53:49;;;;;;;47.63;43.57;;;11.60;53.40;;;;;;5094049;28;20450;-71
2022/03/20 08:56:17;;;;;;;47.77;43.37;;;11.70;53.30;;;;;;5093795;28;20946;-71
2022/03/20 08:58:46;;;;;;;45.60;41.63;;;11.80;52.90;;;;;;5093853;28;20454;-71
2022/03/20 09:01:13;;;;;;;48.47;44.27;;;11.90;52.80;;;;;;5093752;28;20461;-71
2022/03/20 09:03:40;;;;;;;45.97;42.07;;;12.00;52.40;;;;;;5094050;28;20831;-71
2022/03/20 09:06:07;;;;;;;46.20;42.07;;;12.10;52.20;;;;;;5093718;28;20556;-71
2022/03/20 09:08:35;;;;;;;46.53;42.57;;;12.20;52.10;;;;;;5093839;28;20464;-71
2022/03/20 09:11:02;;;;;;;47.20;43.30;;;12.30;52.00;;;;;;5093414;28;20450;-71
2022/03/20 09:13:28;;;;;;;44.30;40.50;;;12.40;51.40;;;;;;5093713;28;20766;-71
2022/03/20 09:21:22;;;;;;;44.57;40.53;;;12.70;50.30;;;;;;5093079;28;20440;-71
2022/03/20 09:23:49;;;;;;;43.40;39.77;;;12.80;50.00;;;;;;5092733;28;20446;-71
2022/03/20 09:26:16;;;;;;;44.93;41.33;;;12.90;49.60;;;;;;5093463;28;20461;-71
2022/03/20 09:28:44;;;;;;;44.87;40.77;;;13.00;49.50;;;;;;5093357;28;20449;-71
2022/03/20 09:31:13;;;;;;;45.63;41.80;;;13.10;49.30;;;;;;5093185;28;20536;-71
2022/03/20 09:33:40;;;;;;;43.97;40.20;;;13.30;49.10;;;;;;5093234;28;20499;-71
2022/03/20 09:36:07;;;;;;;43.50;39.80;;;13.30;48.70;;;;;;5093137;28;20452;-71
2022/03/20 09:38:34;;;;;;;41.33;37.90;;;13.40;48.40;;;;;;5093285;28;20939;-71
2022/03/20 09:41:03;;;;;;;42.40;38.57;;;13.60;48.30;;;;;;5093341;28;20531;-71
2022/03/20 09:43:31;;;;;;;43.27;39.00;;;13.80;48.20;;;;;;5093355;28;20511;-71
2022/03/20 09:45:58;;;;;;;44.87;40.53;;;14.00;47.50;;;;;;5092979;28;20481;-71
2022/03/20 09:48:29;;;;;;;42.83;39.30;;;14.30;46.80;;;;;;5092847;28;20450;-71
2022/03/20 09:50:57;;;;;;;44.93;40.97;;;14.50;46.90;;;;;;5092864;28;20540;-71
2022/03/20 09:53:24;;;;;;;42.80;39.50;;;14.80;46.70;;;;;;5093006;28;20470;-71
2022/03/20 09:55:54;;;;;;;42.47;38.87;;;15.00;46.00;;;;;;5092870;28;20816;-71
2022/03/20 09:58:25;;;;;;;43.30;39.60;;;15.30;45.80;;;;;;5092886;28;20454;-71
2022/03/20 10:00:51;;;;;;;43.33;39.73;;;15.60;45.50;;;;;;5092665;28;20453;-71
2022/03/20 10:03:20;;;;;;;41.60;38.40;;;15.90;44.90;;;;;;5092716;28;20556;-71
2022/03/20 10:06:04;;;;;;;42.13;38.37;;;16.00;45.10;;;;;;5092739;28;20505;-71
2022/03/20 10:08:31;;;;;;;41.00;37.60;;;16.30;45.20;;;;;;5092719;28;20450;-71
2022/03/20 10:11:13;;;;;;;40.63;37.13;;;16.40;45.50;;;;;;5092871;28;20457;-71
2022/03/20 10:13:39;;;;;;;42.93;39.03;;;16.50;45.60;;;;;;5092607;28;21002;-71
2022/03/20 10:16:18;;;;;;;44.73;40.93;;;16.50;45.60;;;;;;5092656;28;20450;-72
2022/03/20 10:18:46;;;;;;;42.57;38.50;;;16.60;45.80;;;;;;5092509;28;20457;-71
2022/03/20 10:21:19;;;;;;;41.03;37.80;;;16.60;46.00;;;;;;5092416;28;20953;-71
2022/03/20 10:23:46;;;;;;;41.37;38.03;;;16.70;46.20;;;;;;5092735;28;20476;-71
2022/03/20 10:26:15;;;;;;;41.10;37.70;;;16.90;45.70;;;;;;5092308;28;20481;-71
2022/03/20 10:28:43;;;;;;;42.37;38.27;;;17.00;45.70;;;;;;5092653;28;20445;-71
2022/03/20 10:31:15;;;;;;;44.63;40.60;;;16.90;46.20;;;;;;5092548;28;20474;-71
2022/03/20 10:33:43;;;;;;;43.93;40.43;;;17.00;45.70;;;;;;5092695;28;20583;-71
2022/03/20 10:36:12;;;;;;;42.63;38.93;;;17.20;45.90;;;;;;5094867;28;20445;-71
2022/03/20 10:38:42;;;;;;;42.03;38.43;;;17.30;45.70;;;;;;5096859;28;20476;-71
2022/03/20 10:41:25;;;;;;;41.60;38.20;;;17.50;45.50;;;;;;5096698;28;20449;-71
2022/03/20 10:43:53;;;;;;;42.60;38.80;;;17.50;45.40;;;;;;5096750;28;20818;-71
2022/03/20 10:46:22;;;;;;;41.57;37.97;;;17.40;45.30;;;;;;5096445;28;20504;-72
2022/03/20 10:48:52;;;;;;;42.00;38.50;;;17.50;45.30;;;;;;5096550;28;20521;-72
2022/03/20 10:51:38;;;;;;;42.10;38.60;;;17.60;44.90;;;;;;5096098;28;20994;-72
2022/03/20 10:54:09;;;;;;;41.43;38.20;;;17.40;45.40;;;;;;5096598;28;20450;-72
2022/03/20 10:56:37;;;;;;;40.30;36.70;;;17.40;45.60;;;;;;5096226;28;20454;-72
2022/03/20 10:59:15;;;;;;;41.33;37.63;;;17.60;45.90;;;;;;5096253;28;20453;-72
2022/03/20 11:01:43;;;;;;;39.40;36.10;;;17.80;45.50;;;;;;5096316;28;20477;-72
2022/03/20 11:04:12;;;;;;;42.73;38.37;;;17.90;45.50;;;;;;5096153;28;20492;-72
2022/03/20 11:06:41;;;;;;;40.10;36.90;;;18.00;45.20;;;;;;5096022;28;20477;-72
2022/03/20 11:09:10;;;;;;;41.83;38.40;;;18.20;45.20;;;;;;5095801;28;20460;-71
2022/03/20 11:11:40;;;;;;;42.40;38.70;;;18.10;44.90;;;;;;5095789;28;20449;-71
2022/03/20 11:14:09;;;;;;;42.93;39.37;;;18.20;44.50;;;;;;5095866;28;20961;-71
2022/03/20 11:16:38;;;;;;;38.73;35.43;;;18.30;44.40;;;;;;5095858;28;20858;-72
2022/03/20 11:19:10;;;;;;;40.67;37.40;;;18.30;44.60;;;;;;5095603;28;20462;-72
2022/03/20 11:21:41;;;;;;;40.60;37.10;;;18.40;44.20;;;;;;5095701;28;20473;-72
2022/03/20 11:24:09;;;;;;;44.07;40.17;;;18.50;44.10;;;;;;5095800;28;20532;-71
2022/03/20 11:26:40;;;;;;;40.40;37.20;;;18.60;43.90;;;;;;5095567;28;20499;-71
2022/03/20 11:29:09;;;;;;;41.37;38.07;;;18.80;43.00;;;;;;5095720;28;20541;-71
2022/03/20 11:31:37;;;;;;;41.17;37.40;;;18.90;43.10;;;;;;5095469;28;20533;-72
2022/03/20 11:34:05;;;;;;;39.50;36.33;;;19.00;42.70;;;;;;5095541;28;20446;-71
2022/03/20 11:36:33;;;;;;;39.90;36.50;;;19.20;42.30;;;;;;5095479;28;20486;-72
2022/03/20 11:39:11;;;;;;;37.93;34.93;;;19.30;42.00;;;;;;5095279;28;20795;-72
2022/03/20 11:41:39;;;;;;;38.07;35.30;;;19.50;41.40;;;;;;5095248;28;20548;-72
2022/03/20 11:44:20;;;;;;;39.33;36.10;;;19.60;41.00;;;;;;5095336;28;20453;-72
2022/03/20 11:46:50;;;;;;;37.60;34.73;;;19.60;40.80;;;;;;5094599;28;20477;-72
2022/03/20 11:49:24;;;;;;;35.40;32.80;;;19.60;41.00;;;;;;5094912;28;21030;-71
2022/03/20 11:51:57;;;;;;;38.50;35.47;;;19.70;41.10;;;;;;5095101;28;20503;-72
2022/03/20 11:54:32;;;;;;;38.93;36.07;;;19.80;40.70;;;;;;5095089;28;20532;-72
2022/03/20 11:57:00;;;;;;;38.57;35.23;;;19.80;40.70;;;;;;5094792;28;20468;-71
2022/03/20 11:59:46;;;;;;;37.60;34.60;;;19.60;40.90;;;;;;5095008;28;20454;-71
2022/03/20 12:02:14;;;;;;;38.93;35.67;;;19.50;41.30;;;;;;5094908;28;20560;-71
2022/03/20 12:05:00;;;;;;;38.70;35.70;;;19.40;41.10;;;;;;5094920;28;20574;-71
2022/03/20 12:07:36;;;;;;;37.10;34.33;;;19.30;41.30;;;;;;5094949;28;20449;-71
2022/03/20 12:10:22;;;;;;;35.43;32.67;;;19.30;41.60;;;;;;5094539;28;20487;-71
2022/03/20 12:13:04;;;;;;;37.57;34.77;;;19.40;41.30;;;;;;5094756;28;20556;-71
2022/03/20 12:15:31;;;;;;;34.77;32.17;;;19.40;41.30;;;;;;5094953;28;20763;-71
2022/03/20 12:18:00;;;;;;;37.70;34.63;;;19.50;41.00;;;;;;5094693;28;20863;-71
2022/03/20 12:21:02;;;;;;;36.40;33.73;;;19.50;41.10;;;;;;5094477;28;20456;-71
2022/03/20 12:23:47;;;;;;;33.63;31.07;;;19.50;41.50;;;;;;5094634;28;20488;-71
2022/03/20 12:26:48;;;;;;;34.93;31.90;;;19.60;41.30;;;;;;5094505;28;20479;-72
2022/03/20 12:29:32;;;;;;;33.40;30.80;;;19.50;41.00;;;;;;5094403;28;20472;-72
2022/03/20 12:32:01;;;;;;;34.00;31.23;;;19.40;41.20;;;;;;5094392;28;20466;-72
2022/03/20 12:34:29;;;;;;;32.37;30.17;;;19.50;41.10;;;;;;5094410;28;20451;-71
2022/03/20 12:36:56;;;;;;;31.37;28.83;;;19.50;40.50;;;;;;5094189;28;20453;-72
2022/03/20 12:39:49;;;;;;;35.90;33.20;;;19.40;39.60;;;;;;5093909;28;20450;-72
2022/03/20 12:42:18;;;;;;;32.83;29.93;;;19.40;39.80;;;;;;5094456;28;20461;-72
2022/03/20 12:44:46;;;;;;;38.33;35.10;;;19.10;39.70;;;;;;5094079;28;20450;-72
2022/03/20 12:47:16;;;;;;;35.03;32.10;;;18.70;41.50;;;;;;5093997;28;20469;-71
2022/03/20 12:49:46;;;;;;;36.43;33.40;;;18.60;41.40;;;;;;5093823;28;20462;-71
2022/03/20 12:52:14;;;;;;;36.07;33.23;;;18.30;41.80;;;;;;5093585;28;20462;-72
2022/03/20 12:54:51;;;;;;;35.40;33.00;;;18.30;41.90;;;;;;5093977;28;20963;-72
2022/03/20 12:57:35;;;;;;;37.93;34.63;;;18.40;42.50;;;;;;5093938;28;20446;-72
2022/03/20 13:00:08;;;;;;;36.17;33.57;;;18.40;42.30;;;;;;5092646;28;20827;-72
2022/03/20 13:02:35;;;;;;;36.63;33.87;;;18.50;41.80;;;;;;5093945;28;20838;-72
2022/03/20 13:05:08;;;;;;;34.00;31.40;;;18.50;41.90;;;;;;5093670;28;20536;-72
2022/03/20 13:07:38;;;;;;;33.73;30.97;;;18.60;41.50;;;;;;5093747;28;20453;-72
2022/03/20 13:10:05;;;;;;;32.43;30.00;;;18.40;42.10;;;;;;5093559;28;20647;-72
2022/03/20 13:12:52;;;;;;;35.23;32.53;;;18.80;41.80;;;;;;5093796;28;20465;-72
2022/03/20 13:15:24;;;;;;;34.67;32.10;;;19.00;41.50;;;;;;5093552;28;20950;-72
2022/03/20 13:17:50;;;;;;;34.60;31.90;;;19.10;41.10;;;;;;5093580;28;20446;-72